Airport View

Enter AWOS ICAO identifier for current METAR.

ex. KFNL

KUNI 262315Z AUTO 00000KT 10SM SCT043 OVC090 02/00 A2993 RMK AO2 T00220000

26 Jan 2020 23:40

Frequency: 128.325

Phone: 740-597-2687

Other Area AWOS: K3I2 - KPMH - KPKB - KLHQ

TAF KPKB 261724Z 2618/2718 25007G16KT P6SM OVC012 FM262200 24004KT P6SM SCT012 OVC022 FM270300 25004KT P6SM BKN015